Time;durP1;ratioP1;P1;durP2;ratioP2;P2;SDS_P1;SDS_P2;PMS_P1;PMS_P2;Temp;Humidity;BMP_temperature;BMP_pressure;BME280_temperature;BME280_humidity;BME280_pressure;Samples;Min_cycle;Max_cycle;Signal;HPM_P1;HPM_P2
2021/12/26 00:00:22;;;;;;;12.25;4.20;;;23.80;99.90;;;;;;5058192;28;20037;-64
2021/12/26 00:02:50;;;;;;;19.80;4.82;;;23.80;99.90;;;;;;5052483;28;20075;-64
2021/12/26 00:05:18;;;;;;;14.90;3.53;;;24.10;99.90;;;;;;5052792;28;20090;-64
2021/12/26 00:07:46;;;;;;;15.95;3.60;;;24.40;99.90;;;;;;5059099;28;20094;-64
2021/12/26 00:10:15;;;;;;;14.15;3.45;;;24.50;99.90;;;;;;5065499;28;20049;-64
2021/12/26 00:12:43;;;;;;;14.38;4.10;;;24.10;99.90;;;;;;5067323;28;20039;-64
2021/12/26 00:15:11;;;;;;;10.15;3.22;;;24.10;99.90;;;;;;5066836;28;20033;-64
2021/12/26 00:17:38;;;;;;;17.52;3.67;;;24.60;99.90;;;;;;5055567;28;20060;-63
2021/12/26 00:20:08;;;;;;;13.27;3.92;;;24.70;99.90;;;;;;5055053;28;20505;-64
2021/12/26 00:22:35;;;;;;;9.80;3.17;;;24.80;99.90;;;;;;5054008;28;20033;-63
2021/12/26 00:25:03;;;;;;;13.93;3.10;;;25.20;99.90;;;;;;5053948;28;20039;-63
2021/12/26 00:27:31;;;;;;;14.40;3.30;;;25.40;99.90;;;;;;5051573;28;20083;-64
2021/12/26 00:29:59;;;;;;;15.07;3.63;;;25.40;99.90;;;;;;5054487;28;20037;-63
2021/12/26 00:32:26;;;;;;;23.02;3.65;;;25.80;99.90;;;;;;5052580;28;20043;-63
2021/12/26 00:34:53;;;;;;;13.05;3.53;;;25.90;99.90;;;;;;5055738;28;20029;-64
2021/12/26 00:37:21;;;;;;;14.55;2.92;;;25.80;99.90;;;;;;5052986;28;20039;-64
2021/12/26 00:39:48;;;;;;;12.18;2.67;;;25.50;99.90;;;;;;5050139;28;20044;-63
2021/12/26 00:42:16;;;;;;;15.25;3.40;;;25.60;99.90;;;;;;5054884;28;20021;-64
2021/12/26 00:44:43;;;;;;;11.07;2.70;;;25.90;99.90;;;;;;5056815;28;20091;-64
2021/12/26 00:47:12;;;;;;;16.73;4.32;;;25.70;99.90;;;;;;5054090;28;20412;-65
2021/12/26 00:49:40;;;;;;;11.55;2.55;;;25.50;99.90;;;;;;5055817;28;20024;-64
2021/12/26 00:52:08;;;;;;;14.25;2.70;;;26.00;99.90;;;;;;5047531;28;20108;-64
2021/12/26 00:54:36;;;;;;;9.57;3.08;;;26.30;99.90;;;;;;5054578;28;20082;-64
2021/12/26 00:57:05;;;;;;;17.65;3.10;;;26.10;99.90;;;;;;5055104;28;20033;-64
2021/12/26 00:59:32;;;;;;;16.02;3.22;;;26.00;99.90;;;;;;5056221;28;20017;-64
2021/12/26 01:02:00;;;;;;;11.07;3.08;;;25.70;99.90;;;;;;5053745;28;20033;-64
2021/12/26 01:04:28;;;;;;;10.57;2.80;;;25.20;99.90;;;;;;5049561;28;20025;-64
2021/12/26 01:06:55;;;;;;;9.40;2.90;;;25.20;99.90;;;;;;5052031;28;20092;-64
2021/12/26 01:09:27;;;;;;;10.52;3.25;;;24.90;99.90;;;;;;5054796;28;20099;-64
2021/12/26 01:11:59;;;;;;;6.78;2.75;;;25.00;99.90;;;;;;5053163;28;20124;-64
2021/12/26 01:14:31;;;;;;;10.65;3.20;;;25.00;99.90;;;;;;5054302;28;20029;-63
2021/12/26 01:17:12;;;;;;;12.30;4.15;;;25.00;99.90;;;;;;5050033;28;20036;-64
2021/12/26 01:19:50;;;;;;;8.45;2.90;;;24.80;99.90;;;;;;5056662;28;20021;-65
2021/12/26 01:22:18;;;;;;;9.18;3.38;;;25.00;99.90;;;;;;5055943;28;20111;-63
2021/12/26 01:24:57;;;;;;;11.60;2.63;;;25.20;99.90;;;;;;5057218;28;20063;-64
2021/12/26 01:27:28;;;;;;;9.48;2.70;;;25.50;99.90;;;;;;5047483;28;20026;-65
2021/12/26 01:29:55;;;;;;;11.93;2.90;;;26.10;99.90;;;;;;5037525;28;20021;-64
2021/12/26 01:32:23;;;;;;;9.32;2.85;;;26.20;99.90;;;;;;5050233;28;20087;-64
2021/12/26 01:34:50;;;;;;;11.95;2.65;;;26.00;99.90;;;;;;5059605;28;20064;-64
2021/12/26 01:37:18;;;;;;;10.70;2.63;;;25.60;99.90;;;;;;5056486;28;20037;-64
2021/12/26 01:39:45;;;;;;;8.77;2.35;;;25.50;99.90;;;;;;5056492;28;20100;-65
2021/12/26 01:42:14;;;;;;;9.02;2.83;;;26.30;99.90;;;;;;5055523;28;20033;-64
2021/12/26 01:44:41;;;;;;;13.77;2.92;;;26.70;99.90;;;;;;5056272;28;20485;-64
2021/12/26 01:47:09;;;;;;;8.95;2.20;;;26.60;99.90;;;;;;5055856;28;20549;-64
2021/12/26 01:49:37;;;;;;;8.98;2.85;;;26.70;99.90;;;;;;5056098;28;20096;-64
2021/12/26 01:52:06;;;;;;;9.13;1.90;;;27.20;99.90;;;;;;5054912;28;20493;-64
2021/12/26 01:54:49;;;;;;;4.70;2.15;;;27.40;99.90;;;;;;5055251;28;20033;-64
2021/12/26 01:57:19;;;;;;;8.18;2.40;;;27.10;99.90;;;;;;5054508;28;20072;-64
2021/12/26 01:59:48;;;;;;;13.32;2.75;;;26.90;99.90;;;;;;5051202;28;20035;-64
2021/12/26 02:02:15;;;;;;;8.73;3.13;;;26.30;99.90;;;;;;5056384;28;20029;-65
2021/12/26 02:04:43;;;;;;;11.95;3.15;;;26.10;99.90;;;;;;5054723;28;20037;-64
2021/12/26 02:07:12;;;;;;;10.68;3.15;;;25.90;99.90;;;;;;5054816;28;20029;-64
2021/12/26 02:09:40;;;;;;;11.50;2.97;;;26.00;99.90;;;;;;5055882;28;20108;-64
2021/12/26 02:12:08;;;;;;;9.27;2.58;;;26.30;99.90;;;;;;5055817;28;20401;-64
2021/12/26 02:14:35;;;;;;;8.93;2.53;;;25.80;99.90;;;;;;5055620;28;20470;-64
2021/12/26 02:17:03;;;;;;;12.57;4.72;;;25.40;99.90;;;;;;5049865;28;20026;-64
2021/12/26 02:19:30;;;;;;;12.65;2.95;;;25.30;99.90;;;;;;5055521;28;20059;-64
2021/12/26 02:22:04;;;;;;;9.00;2.85;;;25.60;99.90;;;;;;5046128;28;20029;-64
2021/12/26 02:24:44;;;;;;;8.52;2.65;;;25.90;99.90;;;;;;5055049;28;20350;-65
2021/12/26 02:29:57;;;;;;;12.90;2.70;;;25.60;99.90;;;;;;5054630;28;20417;-64
2021/12/26 02:32:24;;;;;;;11.18;3.17;;;25.20;99.90;;;;;;5054442;28;20032;-64
2021/12/26 02:34:52;;;;;;;6.47;2.90;;;25.40;99.90;;;;;;5052928;28;20028;-65
2021/12/26 02:37:19;;;;;;;12.02;2.88;;;25.80;99.90;;;;;;5055183;28;20060;-65
2021/12/26 02:39:46;;;;;;;12.38;3.15;;;26.10;99.90;;;;;;5055526;28;20033;-65
2021/12/26 02:42:16;;;;;;;11.23;3.00;;;26.30;99.90;;;;;;5054650;28;20428;-65
2021/12/26 02:44:43;;;;;;;9.95;3.45;;;26.30;99.90;;;;;;5070213;28;20052;-63
2021/12/26 02:47:11;;;;;;;10.00;3.50;;;26.10;99.90;;;;;;5073607;28;20056;-63
2021/12/26 02:49:38;;;;;;;8.05;2.33;;;26.10;99.90;;;;;;5069296;28;20032;-63
2021/12/26 02:52:06;;;;;;;14.52;3.45;;;26.30;99.90;;;;;;5069623;28;20103;-63
2021/12/26 02:54:33;;;;;;;7.43;2.25;;;26.00;99.90;;;;;;5072375;28;20040;-63
2021/12/26 02:57:00;;;;;;;9.85;3.35;;;25.80;99.90;;;;;;5078825;28;20043;-63
2021/12/26 02:59:31;;;;;;;12.50;3.00;;;25.90;99.90;;;;;;5076169;28;20025;-63
2021/12/26 03:01:59;;;;;;;14.05;3.40;;;26.00;99.90;;;;;;5074137;28;20080;-63
2021/12/26 03:04:26;;;;;;;11.35;2.88;;;26.30;99.90;;;;;;5067263;28;20036;-64
2021/12/26 03:07:03;;;;;;;7.18;2.67;;;26.40;99.90;;;;;;5066917;28;20031;-63
2021/12/26 03:09:44;;;;;;;11.70;2.50;;;26.30;99.90;;;;;;5070491;28;20040;-63
2021/12/26 03:12:12;;;;;;;10.77;3.00;;;25.80;99.90;;;;;;5058952;28;20037;-65
2021/12/26 03:14:40;;;;;;;13.68;3.10;;;25.50;99.90;;;;;;5063526;28;20029;-64
2021/12/26 03:17:08;;;;;;;11.18;2.92;;;25.30;99.90;;;;;;5054641;28;20082;-64
2021/12/26 03:19:37;;;;;;;16.38;3.17;;;25.10;99.90;;;;;;5056357;28;20052;-68
2021/12/26 03:22:05;;;;;;;11.30;2.92;;;25.00;99.90;;;;;;5050420;28;20090;-68
2021/12/26 03:24:32;;;;;;;9.15;2.85;;;25.00;99.90;;;;;;5052277;28;20048;-68
2021/12/26 03:27:02;;;;;;;10.45;2.30;;;25.00;99.90;;;;;;5051689;28;20032;-69
2021/12/26 03:29:29;;;;;;;8.50;3.45;;;25.00;99.90;;;;;;5052005;28;20057;-68
2021/12/26 03:31:56;;;;;;;15.77;3.55;;;25.00;99.90;;;;;;5049969;28;20386;-68
2021/12/26 03:34:23;;;;;;;9.88;2.45;;;24.90;99.90;;;;;;5050810;28;20033;-69
2021/12/26 03:36:52;;;;;;;8.63;3.13;;;24.70;99.90;;;;;;5056574;28;20533;-69
2021/12/26 03:39:20;;;;;;;10.20;2.13;;;24.50;99.90;;;;;;5072346;28;20100;-68
2021/12/26 03:41:48;;;;;;;10.65;2.40;;;24.40;99.90;;;;;;5061541;28;20416;-68
2021/12/26 03:44:15;;;;;;;10.45;2.58;;;24.20;99.90;;;;;;5049386;28;20082;-68
2021/12/26 03:46:43;;;;;;;10.35;3.53;;;23.90;99.90;;;;;;5050334;28;21243;-68
2021/12/26 03:49:11;;;;;;;12.55;3.00;;;23.90;99.90;;;;;;5052240;28;20090;-69
2021/12/26 03:51:38;;;;;;;10.93;3.20;;;23.90;99.90;;;;;;5052790;28;20032;-69
2021/12/26 03:54:07;;;;;;;10.68;3.00;;;23.90;99.90;;;;;;5051211;28;20021;-70
2021/12/26 03:56:34;;;;;;;11.60;2.95;;;23.80;99.90;;;;;;5046393;28;20482;-69
2021/12/26 03:59:02;;;;;;;13.82;3.53;;;23.90;99.90;;;;;;5061210;28;20487;-69
2021/12/26 04:01:30;;;;;;;16.58;4.03;;;23.90;99.90;;;;;;5046103;28;20025;-69
2021/12/26 04:03:57;;;;;;;11.98;3.53;;;23.80;99.90;;;;;;5057589;28;20032;-69
2021/12/26 04:06:26;;;;;;;11.07;3.50;;;23.90;99.90;;;;;;5048125;28;20021;-68
2021/12/26 04:08:53;;;;;;;16.23;4.22;;;23.90;99.90;;;;;;5052902;28;20025;-69
2021/12/26 04:11:21;;;;;;;11.95;3.65;;;23.90;99.90;;;;;;5050033;28;20111;-67
2021/12/26 04:13:48;;;;;;;15.88;3.97;;;23.70;99.90;;;;;;5054420;28;20079;-69
2021/12/26 04:16:15;;;;;;;14.65;4.95;;;23.60;99.90;;;;;;5053182;28;20055;-68
2021/12/26 04:18:43;;;;;;;19.25;5.22;;;23.50;99.90;;;;;;5053220;28;20119;-70
2021/12/26 04:21:10;;;;;;;12.55;4.22;;;23.70;99.90;;;;;;5051183;28;20013;-68
2021/12/26 04:23:37;;;;;;;23.15;4.60;;;23.70;99.90;;;;;;5045168;28;20385;-69
2021/12/26 04:26:05;;;;;;;17.73;4.97;;;23.80;99.90;;;;;;5046134;28;20048;-67
2021/12/26 04:28:32;;;;;;;19.58;4.78;;;23.70;99.90;;;;;;5054759;28;20021;-68
2021/12/26 04:30:59;;;;;;;18.55;5.40;;;23.70;99.90;;;;;;5051998;28;20029;-68
2021/12/26 04:33:27;;;;;;;22.27;5.43;;;23.60;99.90;;;;;;5052742;28;20028;-68
2021/12/26 04:35:54;;;;;;;15.52;5.07;;;23.60;99.90;;;;;;5050629;28;20029;-68
2021/12/26 04:38:21;;;;;;;23.70;5.93;;;23.70;99.90;;;;;;5052052;28;20033;-68
2021/12/26 04:40:51;;;;;;;19.95;5.30;;;23.70;99.90;;;;;;5051292;28;20017;-68
2021/12/26 04:43:23;;;;;;;20.92;6.05;;;23.80;99.90;;;;;;5057440;28;20063;-67
2021/12/26 04:45:51;;;;;;;17.38;5.90;;;24.00;99.90;;;;;;5032146;28;20029;-70
2021/12/26 04:48:18;;;;;;;22.98;4.82;;;24.00;99.90;;;;;;5055253;28;20079;-67
2021/12/26 04:50:46;;;;;;;34.92;5.65;;;24.10;99.90;;;;;;5052364;28;20032;-67
2021/12/26 04:53:14;;;;;;;26.73;5.38;;;24.10;99.90;;;;;;5054336;28;20028;-68
2021/12/26 04:55:41;;;;;;;24.65;6.28;;;24.10;99.90;;;;;;5055673;28;20028;-67
2021/12/26 04:58:08;;;;;;;31.08;5.53;;;24.00;99.90;;;;;;5051454;28;20029;-68
2021/12/26 05:00:36;;;;;;;24.20;4.88;;;23.80;99.90;;;;;;5056083;28;20025;-68
2021/12/26 05:03:07;;;;;;;28.65;7.07;;;23.70;99.90;;;;;;5040123;28;20489;-67
2021/12/26 05:05:36;;;;;;;28.63;6.03;;;23.50;99.90;;;;;;5048550;28;20070;-70
2021/12/26 05:08:04;;;;;;;28.88;6.05;;;23.60;99.90;;;;;;5056503;28;20028;-69
2021/12/26 05:10:32;;;;;;;27.45;7.25;;;23.60;99.90;;;;;;5057758;28;20527;-66
2021/12/26 05:13:01;;;;;;;24.15;5.75;;;23.50;99.90;;;;;;5056404;28;20033;-66
2021/12/26 05:15:29;;;;;;;24.25;5.35;;;23.40;99.90;;;;;;5058400;28;20032;-67
2021/12/26 05:17:57;;;;;;;29.00;6.13;;;23.40;99.90;;;;;;5057813;28;20029;-67
2021/12/26 05:20:26;;;;;;;29.67;7.45;;;23.40;99.90;;;;;;5058344;28;20020;-68
2021/12/26 05:22:55;;;;;;;25.35;6.03;;;23.50;99.90;;;;;;5056758;28;20076;-68
2021/12/26 05:25:23;;;;;;;22.30;6.68;;;23.50;99.90;;;;;;5057396;28;20067;-66
2021/12/26 05:27:52;;;;;;;28.33;6.60;;;23.60;99.90;;;;;;5056616;28;20028;-66
2021/12/26 05:30:22;;;;;;;29.27;7.40;;;23.50;99.90;;;;;;5055478;28;20117;-68
2021/12/26 05:32:49;;;;;;;26.98;8.13;;;23.30;99.90;;;;;;5056124;28;20037;-67
2021/12/26 05:35:18;;;;;;;23.02;7.13;;;23.30;99.90;;;;;;5053346;28;20104;-68
2021/12/26 05:37:46;;;;;;;33.30;13.32;;;23.30;99.90;;;;;;5053903;28;20484;-68
2021/12/26 05:40:15;;;;;;;27.38;8.05;;;23.30;99.90;;;;;;5043290;28;20021;-68
2021/12/26 05:42:43;;;;;;;26.00;7.65;;;23.20;99.90;;;;;;5052709;28;20028;-67
2021/12/26 05:45:11;;;;;;;33.30;8.10;;;23.10;99.90;;;;;;5055914;28;20110;-68
2021/12/26 05:47:39;;;;;;;32.75;8.98;;;23.20;99.90;;;;;;5053636;28;20132;-67
2021/12/26 05:50:08;;;;;;;25.08;8.95;;;23.10;99.90;;;;;;5054975;28;20389;-68
2021/12/26 05:52:35;;;;;;;37.78;9.07;;;23.00;99.90;;;;;;5053204;28;20053;-68
2021/12/26 05:55:03;;;;;;;34.40;9.90;;;22.90;99.90;;;;;;5057051;28;20029;-68
2021/12/26 05:57:30;;;;;;;29.52;9.38;;;22.80;99.90;;;;;;5053114;28;20175;-67
2021/12/26 05:59:58;;;;;;;40.25;10.48;;;22.80;99.90;;;;;;5051630;28;20084;-67
2021/12/26 06:02:25;;;;;;;25.65;9.63;;;22.70;99.90;;;;;;5053542;28;20017;-68
2021/12/26 06:04:52;;;;;;;28.20;9.75;;;22.60;99.90;;;;;;5050163;28;20025;-68
2021/12/26 06:07:20;;;;;;;30.92;10.48;;;22.60;99.90;;;;;;5051990;28;20040;-68
2021/12/26 06:09:48;;;;;;;31.30;10.73;;;22.50;99.90;;;;;;5051807;28;20021;-68
2021/12/26 06:12:16;;;;;;;20.90;8.90;;;22.40;99.90;;;;;;5049454;28;20568;-68
2021/12/26 06:14:47;;;;;;;22.30;7.63;;;22.40;99.90;;;;;;5050042;28;20052;-69
2021/12/26 06:17:15;;;;;;;28.00;8.13;;;22.20;99.90;;;;;;5051291;28;20478;-67
2021/12/26 06:19:42;;;;;;;15.73;6.75;;;22.20;99.90;;;;;;5055976;28;20066;-67
2021/12/26 06:22:09;;;;;;;19.20;6.43;;;22.20;99.90;;;;;;5051837;28;20512;-68
2021/12/26 06:24:36;;;;;;;18.10;6.53;;;22.30;99.90;;;;;;5051755;28;20117;-67
2021/12/26 06:27:04;;;;;;;13.68;5.72;;;22.20;99.90;;;;;;5052529;28;20025;-68
2021/12/26 06:29:31;;;;;;;18.63;7.07;;;22.00;99.90;;;;;;5055379;28;20551;-69
2021/12/26 06:31:59;;;;;;;18.10;6.55;;;21.70;99.90;;;;;;5050767;28;20472;-67
2021/12/26 06:34:26;;;;;;;15.65;5.68;;;21.60;99.90;;;;;;5053954;28;20033;-68
2021/12/26 06:36:53;;;;;;;10.80;4.57;;;21.50;99.90;;;;;;5052198;28;20112;-69
2021/12/26 06:39:20;;;;;;;12.02;5.13;;;21.40;99.90;;;;;;5054561;28;20036;-68
2021/12/26 06:41:48;;;;;;;9.65;4.07;;;21.40;99.90;;;;;;5052807;28;20033;-67
2021/12/26 06:44:15;;;;;;;10.43;4.03;;;21.30;99.90;;;;;;5055046;28;20021;-67
2021/12/26 06:46:43;;;;;;;7.38;3.75;;;21.20;99.90;;;;;;5050632;28;20049;-68
2021/12/26 06:49:11;;;;;;;8.20;3.38;;;21.20;99.90;;;;;;5052342;28;20040;-68
2021/12/26 06:51:38;;;;;;;9.82;3.60;;;21.10;99.90;;;;;;5050904;28;20033;-67
2021/12/26 06:54:05;;;;;;;8.70;2.83;;;21.10;99.90;;;;;;5049354;28;20036;-67
2021/12/26 06:56:33;;;;;;;9.30;2.70;;;21.10;99.90;;;;;;5049902;28;20032;-66
2021/12/26 06:59:00;;;;;;;5.25;1.83;;;21.00;99.90;;;;;;5053653;28;20021;-67
2021/12/26 07:01:27;;;;;;;7.05;2.28;;;20.90;99.90;;;;;;5053557;28;20033;-67
2021/12/26 07:03:55;;;;;;;4.63;1.73;;;20.70;99.90;;;;;;5054067;28;20501;-66
2021/12/26 07:06:22;;;;;;;7.32;1.60;;;20.70;99.90;;;;;;5052346;28;20098;-66
2021/12/26 07:08:49;;;;;;;5.45;1.30;;;20.60;99.90;;;;;;5053461;28;20029;-66
2021/12/26 07:11:17;;;;;;;6.25;1.13;;;20.60;99.90;;;;;;5049862;28;20017;-66
2021/12/26 07:13:45;;;;;;;4.82;1.05;;;20.70;99.90;;;;;;5047781;28;20029;-66
2021/12/26 07:16:12;;;;;;;4.50;1.00;;;20.70;99.90;;;;;;5051676;28;20024;-67
2021/12/26 07:18:39;;;;;;;6.15;1.05;;;20.80;99.90;;;;;;5052718;28;20029;-66
2021/12/26 07:21:07;;;;;;;5.50;0.90;;;20.90;99.90;;;;;;5051990;28;20029;-66
2021/12/26 07:23:34;;;;;;;4.15;0.80;;;21.00;99.90;;;;;;5053455;28;20021;-67
2021/12/26 07:26:01;;;;;;;6.20;0.68;;;21.10;99.90;;;;;;5047701;28;20036;-66
2021/12/26 07:28:29;;;;;;;7.60;0.95;;;21.10;99.90;;;;;;5055575;28;20477;-67
2021/12/26 07:30:56;;;;;;;15.02;1.63;;;21.00;99.90;;;;;;5051301;28;20017;-66
2021/12/26 07:33:23;;;;;;;8.82;1.13;;;21.00;99.90;;;;;;5052453;28;20028;-66
2021/12/26 07:35:51;;;;;;;8.32;1.52;;;21.00;99.90;;;;;;5051348;28;20025;-67
2021/12/26 07:38:18;;;;;;;6.57;1.20;;;21.00;99.90;;;;;;5052167;28;20040;-67
2021/12/26 07:40:47;;;;;;;9.25;1.90;;;20.90;99.90;;;;;;5051854;28;20039;-66
2021/12/26 07:43:15;;;;;;;9.15;1.50;;;20.80;99.90;;;;;;5052034;28;20021;-66
2021/12/26 07:45:43;;;;;;;6.95;1.08;;;20.80;99.90;;;;;;5051422;28;20366;-66
2021/12/26 07:48:10;;;;;;;7.93;0.90;;;20.70;99.90;;;;;;5046571;28;20056;-66
2021/12/26 07:50:37;;;;;;;11.18;1.63;;;20.80;99.90;;;;;;5037385;28;20029;-67
2021/12/26 07:53:09;;;;;;;6.43;1.23;;;20.70;99.90;;;;;;5051288;28;20025;-68
2021/12/26 07:55:37;;;;;;;7.28;1.10;;;20.80;99.90;;;;;;5052300;28;20083;-69
2021/12/26 07:58:05;;;;;;;11.85;1.20;;;20.70;99.90;;;;;;5050424;28;20071;-69
2021/12/26 08:00:33;;;;;;;8.98;1.48;;;20.70;99.90;;;;;;5052481;28;20031;-68
2021/12/26 08:03:01;;;;;;;7.22;1.42;;;20.70;99.90;;;;;;5049205;28;20036;-68
2021/12/26 08:05:29;;;;;;;6.28;1.38;;;20.70;99.90;;;;;;5051782;28;20025;-68
2021/12/26 08:07:57;;;;;;;13.13;1.65;;;20.70;99.90;;;;;;5051249;28;20025;-68
2021/12/26 08:10:25;;;;;;;10.00;1.42;;;20.60;99.90;;;;;;5054596;28;20531;-68
2021/12/26 08:12:52;;;;;;;10.18;1.95;;;20.60;99.90;;;;;;5050579;28;20029;-70
2021/12/26 08:15:20;;;;;;;7.38;2.15;;;20.50;99.90;;;;;;5052449;28;20029;-70
2021/12/26 08:17:47;;;;;;;12.50;1.77;;;20.50;99.90;;;;;;5049923;28;20116;-68
2021/12/26 08:20:14;;;;;;;14.73;3.00;;;20.50;99.90;;;;;;5052428;28;20546;-68
2021/12/26 08:22:42;;;;;;;14.32;2.65;;;20.50;99.90;;;;;;5049883;28;20031;-69
2021/12/26 08:25:10;;;;;;;10.70;1.77;;;20.50;99.90;;;;;;5051327;28;20029;-69
2021/12/26 08:27:38;;;;;;;10.18;2.50;;;20.50;99.90;;;;;;5053771;28;20032;-67
2021/12/26 08:30:06;;;;;;;10.57;1.85;;;20.50;99.90;;;;;;5055956;28;20017;-68
2021/12/26 08:32:37;;;;;;;9.60;1.42;;;20.40;99.90;;;;;;5053512;28;20029;-68
2021/12/26 08:35:07;;;;;;;9.77;1.55;;;20.40;99.90;;;;;;5055828;28;20033;-71
2021/12/26 08:37:37;;;;;;;8.52;1.52;;;20.40;99.90;;;;;;5054111;28;20505;-68
2021/12/26 08:40:05;;;;;;;9.85;2.10;;;20.40;99.90;;;;;;5051383;28;20067;-67
2021/12/26 08:42:32;;;;;;;6.35;1.52;;;20.40;99.90;;;;;;5044215;28;20031;-67
2021/12/26 08:45:00;;;;;;;9.27;1.00;;;20.40;99.90;;;;;;5052354;28;20057;-68
2021/12/26 08:47:27;;;;;;;11.73;2.13;;;20.40;99.90;;;;;;5055297;28;20060;-67
2021/12/26 08:49:54;;;;;;;11.30;1.48;;;20.40;99.90;;;;;;5055096;28;20056;-68
2021/12/26 08:52:22;;;;;;;11.35;1.73;;;20.40;99.90;;;;;;5053944;28;20112;-69
2021/12/26 08:54:49;;;;;;;12.50;2.60;;;20.40;99.90;;;;;;5056138;28;20422;-68
2021/12/26 08:57:16;;;;;;;8.07;1.58;;;20.40;99.90;;;;;;5053912;28;20056;-68
2021/12/26 08:59:45;;;;;;;16.58;1.80;;;20.40;99.90;;;;;;5045138;28;20022;-68
2021/12/26 09:02:13;;;;;;;8.43;1.40;;;20.40;99.90;;;;;;5060273;28;20029;-68
2021/12/26 09:04:41;;;;;;;14.35;2.28;;;20.40;99.90;;;;;;5058426;28;20025;-67
2021/12/26 09:07:10;;;;;;;14.77;1.67;;;20.40;99.90;;;;;;5055895;28;20088;-68
2021/12/26 09:09:38;;;;;;;11.27;1.27;;;20.40;99.90;;;;;;5050067;28;20036;-68
2021/12/26 09:12:06;;;;;;;9.25;1.42;;;20.40;99.90;;;;;;5056254;28;20034;-67
2021/12/26 09:14:33;;;;;;;9.02;1.73;;;20.40;99.90;;;;;;5058615;28;20439;-67
2021/12/26 09:17:02;;;;;;;13.77;2.13;;;20.50;99.90;;;;;;5057509;28;20055;-67
2021/12/26 09:19:29;;;;;;;12.25;2.15;;;20.50;99.90;;;;;;5058343;28;20056;-67
2021/12/26 09:22:00;;;;;;;15.93;1.52;;;20.50;99.90;;;;;;5057151;28;20041;-67
2021/12/26 09:24:27;;;;;;;14.55;1.13;;;20.50;99.90;;;;;;5056500;28;20029;-68
2021/12/26 09:26:54;;;;;;;11.60;1.58;;;20.50;99.90;;;;;;5055691;28;20040;-68
2021/12/26 09:29:22;;;;;;;10.27;1.73;;;20.50;99.90;;;;;;5058197;28;20024;-66
2021/12/26 09:31:50;;;;;;;15.18;1.65;;;20.50;99.90;;;;;;5076257;28;20028;-68
2021/12/26 09:34:19;;;;;;;7.53;1.10;;;20.50;99.90;;;;;;5056323;28;20535;-68
2021/12/26 09:36:47;;;;;;;10.52;1.55;;;20.50;99.90;;;;;;5050182;28;20030;-68
2021/12/26 09:39:14;;;;;;;9.20;1.23;;;20.60;99.90;;;;;;5054053;28;20033;-68
2021/12/26 09:41:42;;;;;;;11.70;1.38;;;20.60;99.90;;;;;;5054573;28;20033;-67
2021/12/26 09:44:12;;;;;;;12.80;1.38;;;20.60;99.90;;;;;;5057209;28;20021;-68
2021/12/26 09:46:40;;;;;;;13.18;1.55;;;20.60;99.90;;;;;;5060443;28;20136;-68
2021/12/26 09:49:07;;;;;;;8.90;1.30;;;20.60;99.90;;;;;;5055949;28;20074;-67
2021/12/26 09:51:35;;;;;;;7.70;1.27;;;20.60;99.90;;;;;;5052404;28;20472;-67
2021/12/26 09:54:03;;;;;;;11.52;1.00;;;20.60;99.90;;;;;;5061449;28;20040;-68
2021/12/26 09:56:31;;;;;;;7.32;1.17;;;20.60;99.90;;;;;;5058400;28;20029;-67
2021/12/26 09:59:13;;;;;;;7.10;0.80;;;20.60;99.90;;;;;;5057961;28;20523;-67
2021/12/26 10:01:43;;;;;;;7.88;1.23;;;20.60;99.90;;;;;;5047790;28;20413;-67
2021/12/26 10:04:16;;;;;;;10.68;1.02;;;20.70;99.90;;;;;;5054186;28;20025;-68
2021/12/26 10:06:44;;;;;;;11.90;1.30;;;20.70;99.90;;;;;;5057550;28;20403;-68
2021/12/26 10:09:12;;;;;;;16.70;1.85;;;20.70;99.90;;;;;;5056284;28;20033;-67
2021/12/26 10:11:48;;;;;;;6.07;0.70;;;20.70;99.90;;;;;;5054803;28;20044;-67
2021/12/26 10:14:24;;;;;;;12.50;1.38;;;20.80;99.90;;;;;;5054730;28;20520;-67
2021/12/26 10:17:00;;;;;;;6.93;1.10;;;20.80;99.90;;;;;;5055351;28;20120;-67
2021/12/26 10:19:31;;;;;;;5.65;0.80;;;20.90;99.90;;;;;;5035399;28;20424;-68
2021/12/26 10:22:01;;;;;;;6.72;1.02;;;20.90;99.90;;;;;;5052896;28;20037;-68
2021/12/26 10:24:40;;;;;;;6.35;0.63;;;21.00;99.90;;;;;;5055229;28;20055;-67
2021/12/26 10:27:13;;;;;;;9.88;0.90;;;21.00;99.90;;;;;;5049605;28;20038;-67
2021/12/26 10:29:52;;;;;;;8.77;1.10;;;21.10;99.90;;;;;;5053160;28;20029;-69
2021/12/26 10:32:37;;;;;;;7.93;0.93;;;21.00;99.90;;;;;;5057950;28;20462;-69
2021/12/26 10:35:12;;;;;;;13.20;1.20;;;21.00;99.90;;;;;;5052712;28;20035;-68
2021/12/26 10:37:46;;;;;;;7.53;0.70;;;20.90;99.90;;;;;;5053741;28;20048;-68
2021/12/26 10:40:24;;;;;;;8.13;0.70;;;20.90;99.90;;;;;;5052521;28;20029;-68
2021/12/26 10:42:58;;;;;;;10.00;1.42;;;20.90;99.90;;;;;;5052705;28;20270;-68
2021/12/26 10:45:31;;;;;;;8.80;1.13;;;20.90;99.90;;;;;;5052868;28;20033;-66
2021/12/26 10:48:01;;;;;;;7.40;1.20;;;20.90;99.90;;;;;;5053157;28;20051;-68
2021/12/26 10:50:32;;;;;;;9.68;1.25;;;20.90;99.90;;;;;;5052928;28;20107;-68
2021/12/26 10:53:00;;;;;;;13.07;2.50;;;21.00;99.90;;;;;;5056724;28;20013;-68
2021/12/26 10:55:30;;;;;;;11.55;1.88;;;20.90;99.90;;;;;;5033466;28;20037;-68
2021/12/26 10:58:00;;;;;;;13.98;2.70;;;21.00;99.90;;;;;;5051606;28;20068;-68
2021/12/26 11:00:31;;;;;;;15.25;2.63;;;21.00;99.90;;;;;;5054460;28;20051;-68
2021/12/26 11:03:04;;;;;;;17.73;2.50;;;21.00;99.90;;;;;;5068160;28;20112;-68
2021/12/26 11:05:36;;;;;;;10.98;2.10;;;21.10;99.90;;;;;;5054724;28;20028;-67
2021/12/26 11:08:12;;;;;;;14.00;2.50;;;21.10;99.90;;;;;;5053916;28;20037;-68
2021/12/26 11:10:47;;;;;;;8.27;1.63;;;21.00;99.90;;;;;;5052849;28;20062;-68
2021/12/26 11:13:27;;;;;;;15.48;2.17;;;20.90;99.90;;;;;;5053626;28;20021;-67
2021/12/26 11:16:01;;;;;;;11.85;2.75;;;20.70;99.90;;;;;;5058505;28;20025;-68
2021/12/26 11:18:28;;;;;;;19.23;3.05;;;20.50;99.90;;;;;;5053772;28;20087;-68
2021/12/26 11:20:58;;;;;;;22.58;3.30;;;20.30;99.90;;;;;;5051895;28;20091;-69
2021/12/26 11:23:32;;;;;;;12.50;2.63;;;20.00;99.90;;;;;;5049592;28;20029;-66
2021/12/26 11:26:05;;;;;;;14.68;2.78;;;19.80;99.90;;;;;;5038541;28;20111;-66
2021/12/26 11:28:39;;;;;;;10.23;2.15;;;19.60;99.90;;;;;;5052330;28;20025;-66
2021/12/26 11:31:12;;;;;;;15.93;3.58;;;19.50;99.90;;;;;;5052602;28;20021;-66
2021/12/26 11:33:41;;;;;;;14.82;2.53;;;19.40;99.90;;;;;;5053490;28;20041;-67
2021/12/26 11:36:11;;;;;;;14.88;2.72;;;19.40;99.90;;;;;;5049812;28;20017;-66
2021/12/26 11:38:40;;;;;;;11.65;2.95;;;19.30;99.90;;;;;;5052884;28;20037;-66
2021/12/26 11:41:35;;;;;;;14.05;2.42;;;19.20;99.90;;;;;;5050860;28;20048;-66
2021/12/26 11:44:44;;;;;;;15.73;2.83;;;19.30;99.90;;;;;;5047180;28;20021;-67
2021/12/26 11:48:09;;;;;;;14.63;2.55;;;19.20;99.90;;;;;;5057644;28;20051;-67
2021/12/26 11:50:49;;;;;;;21.67;3.80;;;19.20;99.90;;;;;;4986119;28;20101;-67
2021/12/26 11:53:28;;;;;;;13.40;2.20;;;19.10;99.90;;;;;;4995105;28;20102;-66
2021/12/26 11:56:21;;;;;;;10.00;2.10;;;19.00;99.90;;;;;;5046064;28;20078;-67
2021/12/26 11:59:12;;;;;;;11.93;2.50;;;19.00;99.90;;;;;;5054793;28;20039;-67
2021/12/26 12:01:47;;;;;;;16.48;2.83;;;19.00;99.90;;;;;;5048079;28;20037;-67
2021/12/26 12:04:25;;;;;;;14.68;2.63;;;19.00;99.90;;;;;;5060971;28;20507;-67
2021/12/26 12:06:55;;;;;;;10.93;2.53;;;19.00;99.90;;;;;;5058532;28;20477;-67
2021/12/26 12:09:37;;;;;;;15.52;4.18;;;19.00;99.90;;;;;;5059660;28;20096;-67
2021/12/26 12:12:09;;;;;;;15.93;2.85;;;19.00;99.90;;;;;;5057923;28;20026;-67
2021/12/26 12:14:57;;;;;;;14.77;2.08;;;19.00;99.90;;;;;;5059830;28;20380;-67
2021/12/26 12:17:31;;;;;;;13.82;3.05;;;19.10;99.90;;;;;;5058593;28;20025;-66
2021/12/26 12:20:18;;;;;;;16.58;2.88;;;19.20;99.90;;;;;;5059565;28;20048;-68
2021/12/26 12:23:07;;;;;;;15.57;3.22;;;19.10;99.90;;;;;;5053227;28;20024;-67
2021/12/26 12:25:41;;;;;;;13.77;3.30;;;19.10;99.90;;;;;;5050559;28;20441;-67
2021/12/26 12:28:15;;;;;;;16.25;3.03;;;19.10;99.90;;;;;;5058699;28;20098;-67
2021/12/26 12:30:45;;;;;;;;;;;19.10;99.90;;;;;;5058506;28;20043;-67
2021/12/26 12:33:28;;;;;;;14.82;2.90;;;19.10;99.90;;;;;;5059447;28;19912;-68
2021/12/26 12:35:55;;;;;;;15.88;2.28;;;19.10;99.90;;;;;;5059773;28;20021;-67
2021/12/26 12:38:30;;;;;;;13.80;2.38;;;19.10;99.90;;;;;;5056809;28;20025;-68
2021/12/26 12:40:59;;;;;;;14.52;2.35;;;19.10;99.90;;;;;;5058404;28;20412;-67
2021/12/26 12:43:28;;;;;;;17.38;2.42;;;19.10;99.90;;;;;;5057388;28;20354;-67
2021/12/26 12:46:00;;;;;;;14.52;1.58;;;19.10;99.90;;;;;;5058495;28;20024;-67
2021/12/26 12:48:29;;;;;;;8.68;2.00;;;19.20;99.90;;;;;;5056586;28;20033;-68
2021/12/26 12:51:21;;;;;;;14.63;3.72;;;19.20;99.90;;;;;;5058920;28;20496;-67
2021/12/26 12:53:50;;;;;;;9.20;1.75;;;19.20;99.90;;;;;;5058035;28;20187;-67
2021/12/26 12:56:33;;;;;;;12.90;2.35;;;19.20;99.90;;;;;;5059681;28;20113;-67